createdAt,value
2023-01-29T00:10:42.822Z,4.80
2023-01-29T00:25:44.983Z,4.65
2023-01-29T00:41:05.356Z,4.60
2023-01-29T00:56:07.398Z,4.57
2023-01-29T01:11:09.321Z,4.50
2023-01-29T01:26:11.923Z,4.60
2023-01-29T01:41:24.110Z,4.45
2023-01-29T01:56:28.714Z,4.28
2023-01-29T05:34:43.928Z,4.57
2023-01-29T05:49:45.811Z,4.50
2023-01-29T06:04:47.697Z,4.82
2023-01-29T06:19:49.575Z,4.82
2023-01-29T06:34:53.206Z,4.97
2023-01-29T06:49:55.228Z,4.50
2023-01-29T07:04:57.100Z,4.68
2023-01-29T07:19:58.985Z,5.22
2023-01-29T07:35:00.829Z,5.30
2023-01-29T07:50:03.176Z,5.65
2023-01-29T08:05:05.638Z,5.60
2023-01-29T08:20:08.678Z,5.60
2023-01-29T08:35:10.523Z,5.03
2023-01-29T08:50:12.697Z,5.93
2023-01-29T09:05:15.195Z,5.25
2023-01-29T09:20:18.053Z,5.10
2023-01-29T09:35:19.987Z,5.20
2023-01-29T09:50:42.055Z,5.30
2023-01-29T10:05:56.056Z,4.85
2023-01-29T10:21:04.834Z,5.43
2023-01-29T10:36:13.188Z,4.97
2023-01-29T10:51:18.487Z,4.75
2023-01-29T11:06:20.462Z,4.97
2023-01-29T11:21:23.132Z,4.70
2023-01-29T11:36:33.058Z,5.13
2023-01-29T11:51:34.913Z,5.20
2023-01-29T12:06:37.739Z,10.02
2023-01-29T12:21:58.161Z,6.97
2023-01-29T12:37:20.007Z,5.40
2023-01-29T12:52:41.765Z,4.70
2023-01-29T13:07:47.555Z,4.88
2023-01-29T13:22:49.512Z,4.88
2023-01-29T13:37:52.453Z,4.40
2023-01-29T13:52:58.156Z,4.38
2023-01-29T14:08:14.366Z,4.20
2023-01-29T14:23:37.094Z,4.55
2023-01-29T14:38:39.635Z,4.43
2023-01-29T14:54:05.070Z,4.10
2023-01-29T15:09:24.818Z,4.38
2023-01-29T15:24:28.639Z,4.38
2023-01-29T15:39:31.810Z,4.43
2023-01-29T15:54:34.648Z,4.50
2023-01-29T16:09:36.745Z,4.50
2023-01-29T16:24:39.323Z,4.70
2023-01-29T16:39:44.678Z,4.78
2023-01-29T16:54:46.827Z,4.97
2023-01-29T17:09:54.375Z,5.07
2023-01-29T17:24:56.472Z,6.40
2023-01-29T17:40:01.535Z,5.97
2023-01-29T17:55:04.980Z,9.38
2023-01-29T18:10:10.831Z,9.70
2023-01-29T18:25:13.133Z,9.18
2023-01-29T18:40:17.380Z,10.93
2023-01-29T18:55:20.647Z,9.93
2023-01-29T19:10:22.861Z,8.85
2023-01-29T19:25:25.934Z,8.07
2023-01-29T19:40:29.699Z,8.00
2023-01-29T19:55:32.940Z,7.18
2023-01-29T20:10:35.121Z,7.10
2023-01-29T20:25:40.714Z,7.13
2023-01-29T20:40:43.775Z,7.60
2023-01-29T20:55:46.317Z,6.70
2023-01-29T21:10:49.924Z,6.55
2023-01-29T21:25:52.365Z,6.25
2023-01-29T21:40:59.969Z,5.57
2023-01-29T21:56:02.873Z,5.80
2023-01-29T22:11:08.160Z,5.60
2023-01-29T22:26:10.520Z,5.78
2023-01-29T22:41:12.882Z,5.18
2023-01-29T22:56:15.145Z,5.53
2023-01-29T23:11:20.100Z,4.65
2023-01-29T23:26:41.132Z,4.75
2023-01-29T23:41:43.618Z,5.00
2023-01-29T23:56:46.960Z,4.57
